Time;durP1;ratioP1;P1;durP2;ratioP2;P2;SDS_P1;SDS_P2;PMS_P1;PMS_P2;Temp;Humidity;BMP_temperature;BMP_pressure;BME280_temperature;BME280_humidity;BME280_pressure;Samples;Min_cycle;Max_cycle;Signal;HPM_P1;HPM_P2
2022/07/10 00:00:57;;;;;;;;;;;;;;;15.16;100.00;100217.50;3058571;19;948;-48
2022/07/10 00:01:59;;;;;;;;;;;;;;;15.11;100.00;100220.56;3058749;19;864;-47
2022/07/10 00:03:04;;;;;;;;;;;;;;;15.05;100.00;100221.09;3058648;19;1413;-47
2022/07/10 00:04:06;;;;;;;;;;;;;;;15.03;100.00;100223.06;3058379;19;964;-47
2022/07/10 00:05:11;;;;;;;;;;;;;;;14.98;100.00;100225.28;3058943;19;904;-47
2022/07/10 00:06:20;;;;;;;;;;;;;;;14.92;100.00;100223.13;3058365;19;959;-47
2022/07/10 00:07:24;;;;;;;;;;;;;;;14.88;100.00;100224.34;3058795;19;885;-48
2022/07/10 00:08:26;;;;;;;;;;;;;;;14.80;100.00;100216.09;3058389;19;1336;-47
2022/07/10 00:09:30;;;;;;;;;;;;;;;14.75;100.00;100211.09;3058617;19;1235;-47
2022/07/10 00:10:36;;;;;;;;;;;;;;;14.70;100.00;100203.44;3058326;19;912;-47
2022/07/10 00:11:38;;;;;;;;;;;;;;;14.64;100.00;100203.91;3058659;19;972;-47
2022/07/10 00:12:42;;;;;;;;;;;;;;;14.59;100.00;100197.25;3058116;19;1180;-47
2022/07/10 00:13:44;;;;;;;;;;;;;;;14.54;100.00;100200.28;3058454;19;1304;-47
2022/07/10 00:14:48;;;;;;;;;;;;;;;14.49;100.00;100202.50;3058420;19;877;-47
2022/07/10 00:15:53;;;;;;;;;;;;;;;14.44;100.00;100193.13;3058504;19;881;-48
2022/07/10 00:16:55;;;;;;;;;;;;;;;14.38;100.00;100199.81;3058358;19;964;-47
2022/07/10 00:17:59;;;;;;;;;;;;;;;14.34;100.00;100195.69;3058441;19;1043;-48
2022/07/10 00:19:02;;;;;;;;;;;;;;;14.29;100.00;100190.69;3058306;19;932;-48
2022/07/10 00:20:06;;;;;;;;;;;;;;;14.25;100.00;100188.41;3058115;19;964;-47
2022/07/10 00:21:08;;;;;;;;;;;;;;;14.20;100.00;100177.16;3058302;19;1016;-47
2022/07/10 00:22:13;;;;;;;;;;;;;;;14.16;100.00;100179.25;3058448;19;980;-47
2022/07/10 00:23:15;;;;;;;;;;;;;;;14.14;100.00;100169.59;3058484;19;995;-47
2022/07/10 00:24:19;;;;;;;;;;;;;;;14.11;100.00;100175.25;3058550;19;971;-47
2022/07/10 00:25:24;;;;;;;;;;;;;;;14.04;100.00;100170.34;3058325;19;964;-47
2022/07/10 00:26:26;;;;;;;;;;;;;;;14.01;100.00;100165.22;3057552;19;1850;-47
2022/07/10 00:27:30;;;;;;;;;;;;;;;13.97;100.00;100160.25;3057414;19;1032;-47
2022/07/10 00:28:32;;;;;;;;;;;;;;;13.93;100.00;100156.97;3057461;19;1139;-47
2022/07/10 00:29:37;;;;;;;;;;;;;;;13.92;100.00;100154.41;3057365;19;977;-47
2022/07/10 00:30:39;;;;;;;;;;;;;;;13.87;100.00;100146.75;3058094;19;933;-47
2022/07/10 00:31:43;;;;;;;;;;;;;;;13.84;100.00;100152.34;3058314;19;896;-47
2022/07/10 00:32:45;;;;;;;;;;;;;;;13.82;100.00;100140.03;3057901;19;874;-47
2022/07/10 00:33:50;;;;;;;;;;;;;;;13.77;100.00;100143.06;3058366;19;888;-48
2022/07/10 00:34:52;;;;;;;;;;;;;;;13.75;100.00;100128.94;3056409;19;897;-48
2022/07/10 00:35:57;;;;;;;;;;;;;;;13.72;100.00;100134.56;3058310;19;900;-47
2022/07/10 00:36:59;;;;;;;;;;;;;;;13.71;100.00;100135.53;3058016;19;952;-47
2022/07/10 00:38:03;;;;;;;;;;;;;;;13.68;100.00;100128.56;3058103;19;1010;-47
2022/07/10 00:39:05;;;;;;;;;;;;;;;13.66;100.00;100126.97;3058189;19;895;-47
2022/07/10 00:40:10;;;;;;;;;;;;;;;13.63;100.00;100125.44;3058284;19;972;-47
2022/07/10 00:41:12;;;;;;;;;;;;;;;13.61;100.00;100123.84;3057935;19;1012;-47
2022/07/10 00:42:16;;;;;;;;;;;;;;;13.59;100.00;100117.75;3057255;19;1183;-47
2022/07/10 00:43:18;;;;;;;;;;;;;;;13.57;100.00;100108.97;3058133;19;873;-47
2022/07/10 00:44:23;;;;;;;;;;;;;;;13.55;100.00;100111.75;3058326;19;948;-47
2022/07/10 00:45:24;;;;;;;;;;;;;;;13.54;100.00;100106.50;3058072;19;896;-47
2022/07/10 00:46:29;;;;;;;;;;;;;;;13.52;100.00;100106.66;3057170;19;1861;-47
2022/07/10 00:47:31;;;;;;;;;;;;;;;13.52;100.00;100103.13;3057961;19;866;-47
2022/07/10 00:48:36;;;;;;;;;;;;;;;13.50;100.00;100097.03;3058112;19;877;-47
2022/07/10 00:49:38;;;;;;;;;;;;;;;13.51;100.00;100096.06;3057874;19;979;-47
2022/07/10 00:50:44;;;;;;;;;;;;;;;13.51;100.00;100090.69;3058157;19;1015;-49
2022/07/10 00:51:46;;;;;;;;;;;;;;;13.49;100.00;100088.13;3057859;19;924;-47
2022/07/10 00:52:50;;;;;;;;;;;;;;;13.51;100.00;100088.03;3058072;19;1685;-48
2022/07/10 00:53:52;;;;;;;;;;;;;;;13.52;100.00;100084.38;3057831;19;1187;-47
2022/07/10 00:54:57;;;;;;;;;;;;;;;13.52;100.00;100077.19;3058041;19;861;-47
2022/07/10 00:55:59;;;;;;;;;;;;;;;13.52;100.00;100077.19;3056888;19;944;-47
2022/07/10 00:57:03;;;;;;;;;;;;;;;13.52;100.00;100079.84;3057144;19;888;-48
2022/07/10 00:58:09;;;;;;;;;;;;;;;13.51;100.00;100070.09;3057023;19;923;-48
2022/07/10 00:59:13;;;;;;;;;;;;;;;13.54;100.00;100068.97;3058103;19;900;-48
2022/07/10 01:00:15;;;;;;;;;;;;;;;13.53;100.00;100069.97;3057709;19;935;-48
2022/07/10 01:01:20;;;;;;;;;;;;;;;13.54;100.00;100068.97;3057752;19;1681;-47
2022/07/10 01:02:22;;;;;;;;;;;;;;;13.53;100.00;100069.97;3057425;19;992;-48
2022/07/10 01:03:26;;;;;;;;;;;;;;;13.53;100.00;100072.63;3057139;19;980;-47
2022/07/10 01:04:28;;;;;;;;;;;;;;;13.52;100.00;100062.91;3056889;19;939;-48
2022/07/10 01:05:32;;;;;;;;;;;;;;;13.54;100.00;100063.63;3057891;19;1207;-47
2022/07/10 01:06:34;;;;;;;;;;;;;;;13.56;100.00;100064.34;3056462;19;1841;-48
2022/07/10 01:07:39;;;;;;;;;;;;;;;13.57;100.00;100063.38;3056933;19;952;-47
2022/07/10 01:08:42;;;;;;;;;;;;;;;13.59;100.00;100059.59;3057680;19;952;-47
2022/07/10 01:09:46;;;;;;;;;;;;;;;13.62;100.00;100053.16;3056897;19;1087;-47
2022/07/10 01:10:48;;;;;;;;;;;;;;;13.64;100.00;100049.34;3056860;19;999;-47
2022/07/10 01:11:53;;;;;;;;;;;;;;;13.67;100.00;100053.63;3056765;19;1173;-47
2022/07/10 01:12:55;;;;;;;;;;;;;;;13.69;100.00;100052.53;3056638;19;995;-47
2022/07/10 01:13:59;;;;;;;;;;;;;;;13.73;100.00;100046.91;3057820;19;912;-48
2022/07/10 01:15:01;;;;;;;;;;;;;;;13.74;100.00;100044.09;3057612;19;943;-47
2022/07/10 01:16:05;;;;;;;;;;;;;;;13.78;100.00;100045.53;3057677;19;1063;-48
2022/07/10 01:17:07;;;;;;;;;;;;;;;13.82;100.00;100041.63;3057252;19;972;-47
2022/07/10 01:18:12;;;;;;;;;;;;;;;13.86;100.00;100043.09;3057772;19;896;-47
2022/07/10 01:19:14;;;;;;;;;;;;;;;13.91;100.00;100035.50;3056343;19;1047;-48
2022/07/10 01:20:18;;;;;;;;;;;;;;;13.95;100.00;100033.44;3056734;19;1018;-47
2022/07/10 01:21:31;;;;;;;;;;;;;;;14.00;100.00;100037.47;3057489;19;932;-47
2022/07/10 01:22:35;;;;;;;;;;;;;;;14.06;100.00;100034.25;3057309;19;925;-47
2022/07/10 01:23:37;;;;;;;;;;;;;;;14.11;100.00;100036.56;3057280;19;1026;-47
2022/07/10 01:24:41;;;;;;;;;;;;;;;14.15;100.00;100037.97;3057698;19;991;-47
2022/07/10 01:25:46;;;;;;;;;;;;;;;14.21;100.00;100042.00;3057335;19;1016;-47
2022/07/10 01:26:50;;;;;;;;;;;;;;;14.24;100.00;100042.59;3057302;19;1854;-49
2022/07/10 01:27:52;;;;;;;;;;;;;;;14.29;100.00;100039.53;3057246;19;1039;-47
2022/07/10 01:28:57;;;;;;;;;;;;;;;14.31;100.00;100037.56;3057634;19;977;-48
2022/07/10 01:29:59;;;;;;;;;;;;;;;14.35;100.00;100036.34;3057576;19;908;-48
2022/07/10 01:31:03;;;;;;;;;;;;;;;14.39;100.00;100040.44;3057531;19;970;-47
2022/07/10 01:32:05;;;;;;;;;;;;;;;14.43;100.00;100047.28;3057310;19;949;-48
2022/07/10 01:33:10;;;;;;;;;;;;;;;14.46;100.00;100035.44;3057417;19;940;-47
2022/07/10 01:34:12;;;;;;;;;;;;;;;14.49;100.00;100041.41;3057284;19;734;-47
2022/07/10 01:35:16;;;;;;;;;;;;;;;14.52;100.00;100040.28;3057614;19;903;-48
2022/07/10 01:36:18;;;;;;;;;;;;;;;14.56;100.00;100042.59;3057502;19;884;-48
2022/07/10 01:37:22;;;;;;;;;;;;;;;14.58;100.00;100039.78;3057117;19;1023;-47
2022/07/10 01:38:24;;;;;;;;;;;;;;;14.59;100.00;100042.34;3057362;19;929;-47
2022/07/10 01:39:28;;;;;;;;;;;;;;;14.62;100.00;100047.41;3057126;19;936;-47
2022/07/10 01:40:30;;;;;;;;;;;;;;;14.63;100.00;100043.75;3057518;19;917;-47
2022/07/10 01:41:35;;;;;;;;;;;;;;;14.65;100.00;100047.16;3055840;19;943;-47
2022/07/10 01:42:37;;;;;;;;;;;;;;;14.66;100.00;100048.88;3056470;19;995;-47
2022/07/10 01:43:44;;;;;;;;;;;;;;;14.66;100.00;100054.25;3057047;19;1030;-48
2022/07/10 01:44:46;;;;;;;;;;;;;;;14.66;100.00;100054.25;3057517;19;897;-48
2022/07/10 01:45:51;;;;;;;;;;;;;;;14.67;100.00;100065.84;3057031;19;1598;-48
2022/07/10 01:46:55;;;;;;;;;;;;;;;14.65;100.00;100068.66;3056899;19;1846;-48
2022/07/10 01:47:57;;;;;;;;;;;;;;;14.64;100.00;100066.94;3057119;19;845;-47
2022/07/10 01:49:02;;;;;;;;;;;;;;;14.64;100.00;100068.78;3057075;19;1270;-47
2022/07/10 01:50:04;;;;;;;;;;;;;;;14.62;100.00;100074.28;3057113;19;917;-47
2022/07/10 01:51:09;;;;;;;;;;;;;;;14.61;100.00;100072.56;3057373;19;944;-48
2022/07/10 01:52:11;;;;;;;;;;;;;;;14.60;100.00;100076.28;3056827;19;1046;-47
2022/07/10 01:53:16;;;;;;;;;;;;;;;14.58;100.00;100072.84;3056855;19;1710;-47
2022/07/10 01:54:20;;;;;;;;;;;;;;;14.58;100.00;100078.22;3056954;19;952;-48
2022/07/10 01:55:22;;;;;;;;;;;;;;;14.56;100.00;100072.13;3057094;19;963;-48
2022/07/10 01:56:27;;;;;;;;;;;;;;;14.56;100.00;100074.81;3057213;19;845;-48
2022/07/10 01:57:29;;;;;;;;;;;;;;;14.55;100.00;100081.16;3057215;19;940;-50
2022/07/10 01:58:33;;;;;;;;;;;;;;;14.55;100.00;100077.63;3057043;19;908;-47
2022/07/10 01:59:38;;;;;;;;;;;;;;;14.55;100.00;100072.25;3057090;19;878;-48
2022/07/10 02:00:39;;;;;;;;;;;;;;;14.56;100.00;100079.34;3056830;19;1031;-48
2022/07/10 02:01:44;;;;;;;;;;;;;;;14.57;100.00;100076.53;3057001;19;976;-47
2022/07/10 02:04:40;;;;;;;;;;;;;;;14.58;100.00;100072.84;3057019;19;797;-47
2022/07/10 02:05:25;;;;;;;;;;;;;;;14.63;100.00;100072.44;3056706;19;936;-47
2022/07/10 02:06:29;;;;;;;;;;;;;;;14.64;100.00;100076.84;3056660;19;1018;-47
2022/07/10 02:07:31;;;;;;;;;;;;;;;14.65;100.00;100078.53;3056568;19;1842;-47
2022/07/10 02:08:36;;;;;;;;;;;;;;;14.64;100.00;100069.63;3056815;19;1063;-47
2022/07/10 02:09:38;;;;;;;;;;;;;;;14.62;100.00;100068.91;3056971;19;976;-48
2022/07/10 02:10:44;;;;;;;;;;;;;;;14.62;100.00;100082.34;3057047;19;963;-47
2022/07/10 02:11:46;;;;;;;;;;;;;;;14.58;100.00;100067.50;3057236;19;901;-47
2022/07/10 02:12:51;;;;;;;;;;;;;;;14.59;100.00;100079.09;3056590;19;976;-47
2022/07/10 02:13:53;;;;;;;;;;;;;;;14.57;100.00;100076.53;3056926;19;933;-47
2022/07/10 02:15:00;;;;;;;;;;;;;;;14.54;100.00;100082.16;3056907;19;863;-47
2022/07/10 02:16:02;;;;;;;;;;;;;;;14.50;100.00;100078.00;3056938;19;976;-47
2022/07/10 02:17:06;;;;;;;;;;;;;;;14.48;100.00;100077.31;3056634;19;849;-47
2022/07/10 02:18:09;;;;;;;;;;;;;;;14.45;100.00;100074.03;3056972;19;924;-47
2022/07/10 02:19:13;;;;;;;;;;;;;;;14.42;100.00;100072.44;3056326;19;960;-48
2022/07/10 02:20:15;;;;;;;;;;;;;;;14.41;100.00;100081.47;3056736;19;1032;-47
2022/07/10 02:21:20;;;;;;;;;;;;;;;14.36;100.00;100072.94;3056776;19;972;-47
2022/07/10 02:22:22;;;;;;;;;;;;;;;14.33;100.00;100071.34;3056875;19;876;-47
2022/07/10 02:23:26;;;;;;;;;;;;;;;14.32;100.00;100074.16;3056842;19;876;-48
2022/07/10 02:24:28;;;;;;;;;;;;;;;14.29;100.00;100071.72;3056662;19;1036;-47
2022/07/10 02:25:32;;;;;;;;;;;;;;;14.26;100.00;100080.03;3056495;19;972;-47
2022/07/10 02:26:34;;;;;;;;;;;;;;;14.23;100.00;100081.16;3056730;19;1245;-47
2022/07/10 02:27:38;;;;;;;;;;;;;;;14.22;100.00;100082.13;3056441;19;1862;-47
2022/07/10 02:28:40;;;;;;;;;;;;;;;14.21;100.00;100068.84;3056605;19;1021;-48
2022/07/10 02:29:45;;;;;;;;;;;;;;;14.22;100.00;100075.91;3056424;19;1012;-47
2022/07/10 02:30:47;;;;;;;;;;;;;;;14.23;100.00;100061.53;3056902;19;904;-48
2022/07/10 02:31:51;;;;;;;;;;;;;;;14.23;100.00;100062.38;3056382;19;948;-47
2022/07/10 02:32:53;;;;;;;;;;;;;;;14.25;100.00;100060.38;3056762;19;913;-47
2022/07/10 02:33:58;;;;;;;;;;;;;;;14.27;100.00;100068.31;3056563;19;803;-47
2022/07/10 02:35:00;;;;;;;;;;;;;;;14.28;100.00;100065.50;3056819;19;925;-48
2022/07/10 02:36:04;;;;;;;;;;;;;;;14.30;100.00;100063.56;3056268;19;1002;-48
2022/07/10 02:37:06;;;;;;;;;;;;;;;14.32;100.00;100066.97;3056695;19;959;-48
2022/07/10 02:38:10;;;;;;;;;;;;;;;14.34;100.00;100053.41;3056352;19;866;-48
2022/07/10 02:39:18;;;;;;;;;;;;;;;14.36;100.00;100062.19;3056660;19;959;-47
2022/07/10 02:43:26;;;;;;;;;;;;;;;14.55;100.00;100057.00;3055051;19;1460;-47
2022/07/10 02:44:29;;;;;;;;;;;;;;;14.72;100.00;100053.75;3056062;19;1085;-47
2022/07/10 02:45:33;;;;;;;;;;;;;;;14.99;100.00;100057.69;3056188;19;1663;-47
2022/07/10 02:46:38;;;;;;;;;;;;;;;15.23;100.00;100058.25;3056544;19;936;-47
2022/07/10 02:47:40;;;;;;;;;;;;;;;15.48;100.00;100068.53;3056440;19;1841;-47
2022/07/10 02:48:44;;;;;;;;;;;;;;;15.67;100.00;100066.94;3056215;19;999;-47
2022/07/10 02:49:46;;;;;;;;;;;;;;;15.83;100.00;100072.63;3056364;19;915;-47
2022/07/10 02:50:50;;;;;;;;;;;;;;;16.03;100.00;100079.78;3056081;19;911;-47
2022/07/10 02:51:52;;;;;;;;;;;;;;;16.20;100.00;100092.53;3056313;19;948;-48
2022/07/10 02:52:57;;;;;;;;;;;;;;;16.40;100.00;100087.19;3055741;19;786;-47
2022/07/10 02:53:59;;;;;;;;;;;;;;;16.50;100.00;100088.03;3056600;19;951;-47
2022/07/10 02:55:03;;;;;;;;;;;;;;;16.76;100.00;100116.13;3055822;19;1196;-48
2022/07/10 02:56:05;;;;;;;;;;;;;;;17.02;100.00;100120.94;3056678;19;840;-47
2022/07/10 02:57:10;;;;;;;;;;;;;;;17.31;100.00;100137.88;3056086;19;951;-47
2022/07/10 02:58:11;;;;;;;;;;;;;;;17.57;100.00;100141.63;3055202;19;972;-48
2022/07/10 02:59:16;;;;;;;;;;;;;;;17.77;100.00;100149.66;3055892;19;1802;-47
2022/07/10 03:00:18;;;;;;;;;;;;;;;18.13;100.00;100174.94;3056446;19;901;-47
2022/07/10 03:01:23;;;;;;;;;;;;;;;18.39;100.00;100184.03;3055975;19;975;-47
2022/07/10 03:02:25;;;;;;;;;;;;;;;18.67;100.00;100192.97;3056440;19;995;-47
2022/07/10 03:03:29;;;;;;;;;;;;;;;18.94;100.00;100203.72;3055937;19;896;-47
2022/07/10 03:04:31;;;;;;;;;;;;;;;19.24;100.00;100212.41;3056192;19;956;-47
2022/07/10 03:05:35;;;;;;;;;;;;;;;19.52;100.00;100224.00;3055565;19;976;-48
2022/07/10 03:06:37;;;;;;;;;;;;;;;19.82;100.00;100228.09;3056468;19;872;-48
2022/07/10 03:07:42;;;;;;;;;;;;;;;20.07;100.00;100238.91;3055768;19;1590;-47
2022/07/10 03:08:44;;;;;;;;;;;;;;;20.34;100.00;100245.13;3055817;19;1854;-47
2022/07/10 03:09:48;;;;;;;;;;;;;;;20.57;100.00;100254.41;3055683;19;1631;-47
2022/07/10 03:10:50;;;;;;;;;;;;;;;20.84;100.00;100256.00;3055782;19;942;-48
2022/07/10 03:11:54;;;;;;;;;;;;;;;21.11;100.00;100261.16;3055699;19;1663;-48
2022/07/10 03:12:56;;;;;;;;;;;;;;;21.40;100.00;100270.69;3056166;19;932;-48
2022/07/10 03:14:00;;;;;;;;;;;;;;;21.65;100.00;100269.66;3055530;19;841;-48
2022/07/10 03:15:03;;;;;;;;;;;;;;;21.89;100.00;100275.06;3056239;19;876;-48
2022/07/10 03:16:07;;;;;;;;;;;;;;;22.13;100.00;100276.91;3055700;19;975;-47
2022/07/10 03:17:09;;;;;;;;;;;;;;;22.36;100.00;100268.84;3056229;19;868;-48
2022/07/10 03:18:14;;;;;;;;;;;;;;;22.57;100.00;100277.28;3055491;19;961;-48
2022/07/10 03:19:16;;;;;;;;;;;;;;;22.81;100.00;100278.22;3056258;19;884;-48
2022/07/10 03:20:20;;;;;;;;;;;;;;;23.01;100.00;100274.00;3055461;19;1633;-47
2022/07/10 03:21:22;;;;;;;;;;;;;;;23.26;100.00;100280.97;3055986;19;935;-47
2022/07/10 03:22:28;;;;;;;;;;;;;;;23.48;100.00;100279.25;3055888;19;963;-47
2022/07/10 03:23:32;;;;;;;;;;;;;;;23.70;100.00;100275.69;3056160;19;1017;-48
2022/07/10 03:24:34;;;;;;;;;;;;;;;23.89;99.71;100278.94;3056024;19;939;-48
2022/07/10 03:25:38;;;;;;;;;;;;;;;24.05;97.89;100284.19;3055879;19;880;-48
2022/07/10 03:26:40;;;;;;;;;;;;;;;24.26;95.81;100292.53;3056009;19;1015;-48
2022/07/10 03:27:45;;;;;;;;;;;;;;;24.50;93.39;100288.69;3055640;19;1039;-47
2022/07/10 03:28:46;;;;;;;;;;;;;;;24.75;91.00;100287.31;3055289;19;1858;-48
2022/07/10 03:29:51;;;;;;;;;;;;;;;25.02;89.20;100287.66;3055779;19;975;-48
2022/07/10 03:30:53;;;;;;;;;;;;;;;25.36;87.07;100290.53;3056196;19;795;-48
2022/07/10 03:31:57;;;;;;;;;;;;;;;25.63;84.30;100286.22;3055832;19;1027;-48
2022/07/10 03:32:59;;;;;;;;;;;;;;;25.97;82.06;100281.84;3056037;19;921;-48
2022/07/10 03:34:03;;;;;;;;;;;;;;;26.27;79.91;100287.94;3055790;19;1600;-47
2022/07/10 03:35:05;;;;;;;;;;;;;;;26.64;78.27;100292.19;3056100;19;917;-47
2022/07/10 03:36:10;;;;;;;;;;;;;;;26.92;75.93;100287.47;3055610;19;1817;-48
2022/07/10 03:37:12;;;;;;;;;;;;;;;27.15;73.87;100292.63;3055780;19;924;-48
2022/07/10 03:38:16;;;;;;;;;;;;;;;27.38;72.26;100290.34;3055648;19;968;-47
2022/07/10 03:39:18;;;;;;;;;;;;;;;27.49;71.25;100292.47;3056135;19;872;-48
2022/07/10 03:40:22;;;;;;;;;;;;;;;26.62;72.12;100284.19;3055689;19;959;-47
2022/07/10 03:41:24;;;;;;;;;;;;;;;25.56;74.95;100279.81;3055749;19;1054;-47
2022/07/10 03:42:29;;;;;;;;;;;;;;;24.76;78.24;100283.53;3054900;19;1659;-48
2022/07/10 03:43:31;;;;;;;;;;;;;;;23.95;82.05;100284.47;3053898;19;1116;-47
2022/07/10 03:44:35;;;;;;;;;;;;;;;23.34;85.93;100280.91;3054586;19;1678;-47
2022/07/10 03:45:37;;;;;;;;;;;;;;;22.57;90.53;100276.44;3055805;19;932;-47
2022/07/10 03:46:41;;;;;;;;;;;;;;;21.95;95.42;100278.97;3055367;19;1876;-48
2022/07/10 03:47:43;;;;;;;;;;;;;;;21.37;100.00;100273.75;3055843;19;1019;-47
2022/07/10 03:48:48;;;;;;;;;;;;;;;20.88;100.00;100268.22;3055456;19;1860;-47
2022/07/10 03:49:50;;;;;;;;;;;;;;;20.43;100.00;100272.13;3055843;19;931;-47
2022/07/10 03:50:54;;;;;;;;;;;;;;;20.06;100.00;100264.28;3055565;19;890;-47
2022/07/10 03:51:58;;;;;;;;;;;;;;;19.72;100.00;100256.13;3055985;19;962;-48
2022/07/10 03:53:03;;;;;;;;;;;;;;;19.41;100.00;100249.44;3055666;19;1602;-47
2022/07/10 03:54:05;;;;;;;;;;;;;;;19.17;100.00;100249.22;3055725;19;939;-47
2022/07/10 03:55:09;;;;;;;;;;;;;;;18.96;100.00;100247.66;3055459;19;1734;-48
2022/07/10 03:57:53;;;;;;;;;;;;;;;18.81;100.00;100251.09;3055663;19;984;-47
2022/07/10 03:58:54;;;;;;;;;;;;;;;18.72;100.00;100238.47;3055850;19;892;-47
2022/07/10 03:59:55;;;;;;;;;;;;;;;19.69;100.00;100240.19;3055419;19;1177;-47
2022/07/10 04:01:00;;;;;;;;;;;;;;;21.37;100.00;100257.47;3055570;19;1028;-47
2022/07/10 04:02:02;;;;;;;;;;;;;;;22.86;100.00;100270.34;3055854;19;888;-47
2022/07/10 04:03:07;;;;;;;;;;;;;;;24.09;100.00;100273.78;3055504;19;1749;-48
2022/07/10 04:04:09;;;;;;;;;;;;;;;25.00;99.42;100282.38;3055547;19;874;-48
2022/07/10 04:05:14;;;;;;;;;;;;;;;25.89;91.06;100284.72;3055755;19;884;-47
2022/07/10 04:06:15;;;;;;;;;;;;;;;26.48;84.88;100290.63;3055533;19;904;-47
2022/07/10 04:07:20;;;;;;;;;;;;;;;25.49;82.66;100287.94;3055578;19;888;-48
2022/07/10 04:08:22;;;;;;;;;;;;;;;24.69;84.13;100288.09;3055423;19;1019;-47
2022/07/10 04:09:26;;;;;;;;;;;;;;;24.08;86.23;100282.97;3054947;19;1849;-48
2022/07/10 04:10:31;;;;;;;;;;;;;;;23.54;89.30;100285.91;3057227;19;757;-48
2022/07/10 04:11:33;;;;;;;;;;;;;;;23.04;92.03;100289.97;3058607;19;1026;-48
2022/07/10 04:12:37;;;;;;;;;;;;;;;22.70;94.48;100284.00;3058368;19;890;-48
2022/07/10 04:13:39;;;;;;;;;;;;;;;22.69;96.65;100285.03;3058638;19;964;-47
2022/07/10 04:14:44;;;;;;;;;;;;;;;22.92;95.74;100286.81;3058151;19;988;-48
2022/07/10 04:15:46;;;;;;;;;;;;;;;22.99;96.74;100293.22;3058649;19;1243;-48
2022/07/10 04:16:50;;;;;;;;;;;;;;;22.65;97.52;100284.53;3058664;19;829;-48
2022/07/10 04:17:52;;;;;;;;;;;;;;;22.32;99.76;100293.84;3058531;19;912;-48
2022/07/10 04:18:57;;;;;;;;;;;;;;;22.05;100.00;100292.38;3058085;19;1634;-47
2022/07/10 04:19:59;;;;;;;;;;;;;;;21.74;100.00;100281.34;3058476;19;1063;-47
2022/07/10 04:21:04;;;;;;;;;;;;;;;21.49;100.00;100288.69;3056298;19;1710;-48
2022/07/10 04:22:06;;;;;;;;;;;;;;;21.23;100.00;100293.41;3058453;19;2116;-47
2022/07/10 04:23:10;;;;;;;;;;;;;;;20.96;100.00;100289.09;3056472;19;1623;-48
2022/07/10 04:24:12;;;;;;;;;;;;;;;20.72;100.00;100287.16;3057862;19;913;-47
2022/07/10 04:25:16;;;;;;;;;;;;;;;20.49;100.00;100282.34;3057813;19;963;-47
2022/07/10 04:26:18;;;;;;;;;;;;;;;20.28;100.00;100273.75;3058384;19;833;-48
2022/07/10 04:27:22;;;;;;;;;;;;;;;20.08;100.00;100272.25;3058013;19;1108;-48
2022/07/10 04:28:24;;;;;;;;;;;;;;;19.89;100.00;100261.66;3058283;19;1067;-47
2022/07/10 04:29:28;;;;;;;;;;;;;;;19.68;100.00;100262.84;3056904;19;1900;-48
2022/07/10 04:30:30;;;;;;;;;;;;;;;19.45;100.00;100264.34;3057383;19;967;-48
2022/07/10 04:31:35;;;;;;;;;;;;;;;19.33;100.00;100250.22;3057959;19;1560;-48
2022/07/10 04:32:37;;;;;;;;;;;;;;;19.18;100.00;100264.47;3057252;19;1018;-47
2022/07/10 04:33:41;;;;;;;;;;;;;;;18.96;100.00;100263.91;3057225;19;955;-48
2022/07/10 04:34:45;;;;;;;;;;;;;;;18.78;100.00;100248.66;3057528;19;927;-48
2022/07/10 04:35:47;;;;;;;;;;;;;;;18.65;100.00;100254.44;3058634;19;926;-47
2022/07/10 04:36:52;;;;;;;;;;;;;;;18.54;100.00;100252.78;3057944;19;1448;-47
2022/07/10 04:37:54;;;;;;;;;;;;;;;18.43;100.00;100249.44;3058118;19;1304;-47
2022/07/10 04:38:58;;;;;;;;;;;;;;;18.33;100.00;100238.69;3058061;19;975;-47
2022/07/10 04:40:01;;;;;;;;;;;;;;;18.22;100.00;100245.13;3058528;19;907;-47
2022/07/10 04:41:05;;;;;;;;;;;;;;;18.10;100.00;100237.38;3057340;19;932;-48
2022/07/10 04:42:07;;;;;;;;;;;;;;;18.06;100.00;100236.81;3058408;19;876;-48
2022/07/10 04:43:12;;;;;;;;;;;;;;;18.04;100.00;100236.09;3056953;19;1154;-48
2022/07/10 04:44:14;;;;;;;;;;;;;;;18.06;100.00;100233.25;3058329;19;884;-48
2022/07/10 04:45:18;;;;;;;;;;;;;;;18.12;100.00;100230.78;3057668;19;959;-47
2022/07/10 04:46:20;;;;;;;;;;;;;;;18.23;100.00;100236.00;3058211;19;972;-47
2022/07/10 04:47:25;;;;;;;;;;;;;;;18.34;100.00;100235.84;3057588;19;952;-48
2022/07/10 04:48:27;;;;;;;;;;;;;;;18.38;100.00;100241.75;3058084;19;896;-47
2022/07/10 04:49:31;;;;;;;;;;;;;;;19.08;100.00;100243.72;3057659;19;1883;-48
2022/07/10 04:50:33;;;;;;;;;;;;;;;20.76;100.00;100256.00;3058067;19;857;-48
2022/07/10 04:51:37;;;;;;;;;;;;;;;21.38;100.00;100262.69;3057682;19;1633;-47
2022/07/10 04:52:47;;;;;;;;;;;;;;;21.64;100.00;100257.09;3058032;19;935;-47
2022/07/10 04:53:51;;;;;;;;;;;;;;;22.27;100.00;100265.31;3057550;19;976;-48
2022/07/10 04:54:53;;;;;;;;;;;;;;;22.90;100.00;100261.66;3058047;19;932;-48
2022/07/10 04:55:58;;;;;;;;;;;;;;;23.77;100.00;100273.09;3057129;19;865;-48
2022/07/10 04:57:00;;;;;;;;;;;;;;;23.79;99.07;100278.34;3058168;19;904;-48
2022/07/10 04:58:05;;;;;;;;;;;;;;;24.39;93.21;100272.78;3056808;19;817;-48
2022/07/10 04:59:07;;;;;;;;;;;;;;;25.51;89.12;100275.97;3057222;19;1006;-48
2022/07/10 05:00:12;;;;;;;;;;;;;;;25.62;84.58;100283.66;3057453;19;1597;-48
2022/07/10 05:01:14;;;;;;;;;;;;;;;25.61;82.39;100279.25;3058085;19;983;-48
2022/07/10 05:02:18;;;;;;;;;;;;;;;26.49;79.20;100282.22;3057776;19;995;-48
2022/07/10 05:03:20;;;;;;;;;;;;;;;27.42;73.12;100283.38;3057996;19;984;-48
2022/07/10 05:04:25;;;;;;;;;;;;;;;28.16;67.54;100285.94;3057477;19;1003;-48
2022/07/10 05:05:27;;;;;;;;;;;;;;;29.41;63.80;100284.66;3057929;19;983;-48
2022/07/10 05:06:31;;;;;;;;;;;;;;;28.80;61.89;100278.84;3057438;19;971;-48
2022/07/10 05:07:33;;;;;;;;;;;;;;;27.85;62.69;100278.38;3057920;19;967;-48
2022/07/10 05:08:38;;;;;;;;;;;;;;;27.06;64.33;100282.88;3057263;19;1639;-48
2022/07/10 05:09:40;;;;;;;;;;;;;;;26.34;66.53;100283.38;3057475;19;910;-47
2022/07/10 05:10:45;;;;;;;;;;;;;;;25.79;68.16;100272.25;3056527;19;1913;-48
2022/07/10 05:11:47;;;;;;;;;;;;;;;25.27;69.80;100269.00;3057739;19;987;-47
2022/07/10 05:12:51;;;;;;;;;;;;;;;24.76;71.59;100277.22;3057329;19;947;-48
2022/07/10 05:13:53;;;;;;;;;;;;;;;24.23;72.90;100264.78;3057828;19;961;-48
2022/07/10 05:14:59;;;;;;;;;;;;;;;23.81;75.33;100266.22;3057272;19;1055;-48
2022/07/10 05:16:01;;;;;;;;;;;;;;;23.42;78.10;100265.53;3057727;19;940;-48
2022/07/10 05:17:06;;;;;;;;;;;;;;;23.11;80.77;100262.88;3057508;19;876;-47
2022/07/10 05:18:08;;;;;;;;;;;;;;;22.81;82.67;100261.88;3057733;19;1104;-48
2022/07/10 05:19:13;;;;;;;;;;;;;;;22.54;84.62;100260.44;3057058;19;1917;-48
2022/07/10 05:20:15;;;;;;;;;;;;;;;22.34;87.03;100260.00;3057708;19;824;-48
2022/07/10 05:21:19;;;;;;;;;;;;;;;22.13;88.49;100257.03;3056273;19;947;-47
2022/07/10 05:22:21;;;;;;;;;;;;;;;21.95;90.07;100256.38;3057782;19;974;-48
2022/07/10 05:23:26;;;;;;;;;;;;;;;21.80;91.35;100256.22;3057349;19;1634;-47
2022/07/10 05:24:28;;;;;;;;;;;;;;;21.62;92.79;100253.69;3056322;19;1240;-47
2022/07/10 05:25:32;;;;;;;;;;;;;;;21.56;94.73;100254.41;3056461;19;967;-47
2022/07/10 05:26:36;;;;;;;;;;;;;;;21.46;95.74;100253.72;3057647;19;939;-48
2022/07/10 05:27:40;;;;;;;;;;;;;;;21.31;95.86;100250.84;3057217;19;1071;-48
2022/07/10 05:28:42;;;;;;;;;;;;;;;21.31;96.61;100252.69;3057650;19;991;-47
2022/07/10 05:29:46;;;;;;;;;;;;;;;21.28;96.98;100256.59;3057009;19;1006;-47
2022/07/10 05:30:48;;;;;;;;;;;;;;;21.26;97.36;100252.34;3056797;19;1858;-47
2022/07/10 05:31:53;;;;;;;;;;;;;;;21.18;98.11;100259.47;3057512;19;1808;-47
2022/07/10 05:32:55;;;;;;;;;;;;;;;21.18;100.00;100255.88;3057350;19;1003;-47
2022/07/10 05:33:59;;;;;;;;;;;;;;;21.21;100.00;100255.59;3057132;19;970;-48
2022/07/10 05:35:01;;;;;;;;;;;;;;;21.23;100.00;100258.13;3057496;19;845;-47
2022/07/10 05:36:06;;;;;;;;;;;;;;;21.19;100.00;100253.03;3057106;19;1395;-47